Time;durP1;ratioP1;P1;durP2;ratioP2;P2;SDS_P1;SDS_P2;PMS_P1;PMS_P2;Temp;Humidity;BMP_temperature;BMP_pressure;BME280_temperature;BME280_humidity;BME280_pressure;Samples;Min_cycle;Max_cycle;Signal;HPM_P1;HPM_P2
2023/03/11 00:00:49;;;;;;;1.77;1.67;;;2.10;99.90;;;-141.84;84.09;18734.81;5073651;28;20192;-71
2023/03/11 00:03:21;;;;;;;1.90;1.80;;;2.10;99.90;;;-141.84;84.18;18753.09;5072865;28;20588;-75
2023/03/11 00:05:53;;;;;;;1.90;1.80;;;2.00;99.90;;;-141.84;84.09;18718.56;5072355;28;20724;-70
2023/03/11 00:08:24;;;;;;;1.80;1.70;;;1.90;99.90;;;-141.84;83.89;18740.91;5072084;28;20247;-71
2023/03/11 00:10:57;;;;;;;2.10;1.90;;;2.00;99.90;;;-141.84;84.05;18757.16;5072091;28;20750;-70
2023/03/11 00:13:26;;;;;;;2.33;2.13;;;2.00;99.90;;;-141.84;84.52;18708.41;5072298;28;20300;-71
2023/03/11 00:15:55;;;;;;;2.50;2.30;;;1.90;99.90;;;-141.84;84.14;18751.06;5071832;28;20196;-71
2023/03/11 00:18:26;;;;;;;2.57;2.37;;;1.90;99.90;;;-141.84;84.28;18765.28;5071692;28;20656;-71
2023/03/11 00:20:59;;;;;;;2.10;2.00;;;1.90;99.90;;;-141.84;84.49;18749.03;5071185;28;20255;-70
2023/03/11 00:23:28;;;;;;;2.40;2.20;;;1.90;99.90;;;-141.84;84.46;18759.19;5071028;28;20323;-71
2023/03/11 00:25:58;;;;;;;2.90;2.70;;;1.80;99.90;;;-141.84;84.71;18749.03;5071338;28;20220;-72
2023/03/11 00:28:26;;;;;;;2.70;2.50;;;1.80;99.90;;;-141.84;85.21;18716.53;5071331;28;20579;-72
2023/03/11 00:30:55;;;;;;;2.90;2.67;;;1.80;99.90;;;-141.84;85.13;18740.91;5071323;28;20234;-71
2023/03/11 00:33:23;;;;;;;3.30;3.00;;;1.80;99.90;;;-141.84;85.02;18720.59;5071495;28;20255;-72
2023/03/11 00:35:52;;;;;;;3.20;2.90;;;1.80;99.90;;;-141.84;84.92;18740.91;5070991;28;20221;-71
2023/03/11 00:38:22;;;;;;;3.27;2.97;;;1.80;99.90;;;-141.84;85.08;18708.41;5070644;28;20598;-71
2023/03/11 00:40:51;;;;;;;3.93;3.60;;;1.80;99.90;;;-141.84;85.72;18726.69;5070881;28;20240;-71
2023/03/11 00:43:19;;;;;;;3.60;3.30;;;1.70;99.90;;;-141.84;85.89;18747.00;5071072;28;20224;-72
2023/03/11 00:45:47;;;;;;;3.77;3.47;;;1.70;99.90;;;-141.84;86.20;18704.31;5071092;28;20197;-72
2023/03/11 00:48:16;;;;;;;3.90;3.50;;;1.60;99.90;;;-141.84;86.41;18726.69;5071325;28;20230;-71
2023/03/11 00:50:44;;;;;;;3.83;3.43;;;1.60;99.90;;;-141.84;86.55;18736.84;5070639;28;20240;-73
2023/03/11 00:53:12;;;;;;;4.20;3.80;;;1.60;99.90;;;-141.84;86.75;18706.38;5070499;28;20247;-72
2023/03/11 00:55:42;;;;;;;4.30;3.90;;;1.60;99.90;;;-141.84;86.58;18728.72;5070470;28;20575;-71
2023/03/11 00:58:11;;;;;;;5.20;4.70;;;1.60;99.90;;;-141.84;86.72;18720.59;5070665;28;20719;-70
2023/03/11 01:00:40;;;;;;;4.87;4.37;;;1.60;99.90;;;-141.84;86.94;18740.91;5071139;28;20205;-71
2023/03/11 01:03:08;;;;;;;5.10;4.60;;;1.60;99.90;;;-141.84;86.49;18722.63;5070776;28;20303;-71
2023/03/11 01:05:36;;;;;;;5.40;4.70;;;1.60;99.90;;;-141.84;86.72;18677.91;5070363;28;20234;-71
2023/03/11 01:08:05;;;;;;;5.87;5.27;;;1.50;99.90;;;-141.84;86.75;18704.31;5070095;28;20227;-71
2023/03/11 01:10:34;;;;;;;5.50;4.93;;;1.50;99.90;;;-141.84;86.94;18716.53;5070163;28;20691;-72
2023/03/11 01:13:05;;;;;;;5.73;5.23;;;1.50;99.90;;;-141.84;87.12;18702.28;5070487;28;20548;-71
2023/03/11 01:15:36;;;;;;;6.13;5.47;;;1.50;99.90;;;-141.84;87.72;18696.19;5070746;28;20181;-70
2023/03/11 01:18:05;;;;;;;7.93;6.20;;;1.40;99.90;;;-141.84;87.97;18716.53;5070218;28;20254;-70
2023/03/11 01:20:35;;;;;;;6.73;5.87;;;1.40;99.90;;;-141.84;87.74;18692.13;5070068;28;20482;-71
2023/03/11 01:23:04;;;;;;;7.00;6.30;;;1.50;99.90;;;-141.84;87.56;18708.41;5070335;28;20239;-70
2023/03/11 01:25:32;;;;;;;6.87;6.07;;;1.50;99.90;;;-141.84;87.53;18675.88;5070088;28;20223;-70
2023/03/11 01:28:01;;;;;;;7.37;5.90;;;1.40;99.90;;;-141.84;87.43;18690.09;5069354;28;20205;-70
2023/03/11 01:30:31;;;;;;;7.23;6.03;;;1.50;99.90;;;-141.84;87.35;18675.88;5070841;28;20232;-71
2023/03/11 01:32:59;;;;;;;8.07;5.80;;;1.40;99.90;;;-141.84;87.74;18702.28;5070199;28;20742;-72
2023/03/11 01:35:30;;;;;;;7.20;5.80;;;1.30;99.90;;;-141.84;88.04;18669.78;5070149;28;20716;-72
2023/03/11 01:37:59;;;;;;;6.53;5.83;;;1.40;99.90;;;-141.84;87.97;18671.81;5070052;28;20220;-70
2023/03/11 01:40:32;;;;;;;6.30;5.57;;;1.40;99.90;;;-141.84;87.93;18663.69;5070456;28;20247;-72
2023/03/11 01:43:03;;;;;;;6.37;5.77;;;1.40;99.90;;;-141.84;88.27;18669.78;5070157;28;20187;-70
2023/03/11 01:45:42;;;;;;;6.03;5.37;;;1.40;99.90;;;-141.84;88.31;18645.41;5070402;28;20590;-70
2023/03/11 01:48:11;;;;;;;7.43;5.87;;;1.40;99.90;;;-141.84;88.33;18633.22;5069502;28;20268;-70
2023/03/11 01:50:45;;;;;;;5.90;5.30;;;1.30;99.90;;;-141.84;88.26;18659.63;5070098;28;20248;-71
2023/03/11 01:53:15;;;;;;;6.03;5.43;;;1.30;99.90;;;-141.84;88.11;18653.53;5070017;28;20232;-71
2023/03/11 01:55:45;;;;;;;6.37;5.63;;;1.30;99.90;;;-141.84;88.00;18663.69;5070050;28;20224;-71
2023/03/11 01:58:24;;;;;;;6.30;5.70;;;1.30;99.90;;;-141.84;88.24;18669.78;5070260;28;20230;-71
2023/03/11 02:00:55;;;;;;;6.60;5.90;;;1.40;99.90;;;-141.84;88.16;18688.06;5070186;28;20304;-68
2023/03/11 02:03:30;;;;;;;7.20;6.43;;;1.40;99.90;;;-141.84;88.20;18681.97;5070895;28;20200;-70
2023/03/11 02:06:03;;;;;;;7.33;6.50;;;1.30;99.90;;;-141.84;87.94;18663.69;5088389;28;20237;-70
2023/03/11 02:08:33;;;;;;;8.13;7.10;;;1.30;99.90;;;-141.84;87.97;18657.59;5072582;28;20233;-71
2023/03/11 02:11:06;;;;;;;7.57;6.70;;;1.40;99.90;;;-141.84;87.56;18673.84;5069891;28;20258;-70
2023/03/11 02:13:36;;;;;;;8.87;7.70;;;1.40;99.90;;;-141.84;87.45;18659.63;5069809;28;20225;-71
2023/03/11 02:16:06;;;;;;;9.60;7.93;;;1.30;99.90;;;-141.84;87.58;18647.44;5069823;28;20197;-71
2023/03/11 02:18:35;;;;;;;9.53;8.00;;;1.30;99.90;;;-141.84;87.35;18675.88;5070371;28;20263;-71
2023/03/11 02:21:22;;;;;;;9.33;7.57;;;1.30;99.90;;;-141.84;87.08;18667.75;5069359;28;20232;-70
2023/03/11 02:24:02;;;;;;;9.57;7.53;;;1.40;99.90;;;-141.84;87.46;18663.69;5069543;28;20235;-71
2023/03/11 02:26:39;;;;;;;9.17;7.80;;;1.30;99.90;;;-141.84;87.30;18671.81;5069488;28;20231;-71
2023/03/11 02:29:11;;;;;;;9.07;7.67;;;1.30;99.90;;;-141.84;87.67;18720.59;5069618;28;20232;-71
2023/03/11 02:31:42;;;;;;;9.37;7.87;;;1.30;99.90;;;-141.84;87.70;18665.72;5069446;28;20248;-71
2023/03/11 02:34:20;;;;;;;8.33;7.37;;;1.30;99.90;;;-141.84;87.77;18684.00;5069794;28;20311;-70
2023/03/11 02:36:49;;;;;;;9.70;8.10;;;1.30;99.90;;;-141.84;87.56;18665.72;5069509;28;20210;-70
2023/03/11 02:39:17;;;;;;;8.63;7.57;;;1.30;99.90;;;-141.84;87.44;18655.56;5072765;28;20212;-72
2023/03/11 02:41:47;;;;;;;8.23;6.97;;;1.30;99.90;;;-141.84;87.14;18665.72;5072936;28;20285;-70
2023/03/11 02:44:17;;;;;;;8.57;7.40;;;1.30;99.90;;;-141.84;86.73;18659.63;5072997;28;20220;-70
2023/03/11 02:46:46;;;;;;;8.93;7.27;;;1.30;99.90;;;-141.84;86.84;18669.78;5072960;28;20223;-71
2023/03/11 02:49:16;;;;;;;8.80;7.00;;;1.30;99.90;;;-141.84;86.69;18688.06;5072966;28;20319;-70
2023/03/11 02:51:44;;;;;;;8.30;6.80;;;1.30;99.90;;;-141.84;86.72;18647.44;5073586;28;20228;-70
2023/03/11 02:54:12;;;;;;;8.43;7.00;;;1.30;99.90;;;-141.84;86.38;18671.81;5073076;28;20239;-71
2023/03/11 02:56:40;;;;;;;8.73;6.77;;;1.30;99.90;;;-141.84;86.02;18706.38;5072866;28;20227;-71
2023/03/11 02:59:09;;;;;;;8.77;7.13;;;1.30;99.90;;;-141.84;86.18;18665.72;5072548;28;20224;-70
2023/03/11 03:01:38;;;;;;;7.87;6.27;;;1.30;99.90;;;-141.84;86.25;18688.06;5072530;28;20696;-70
2023/03/11 03:04:06;;;;;;;8.80;6.90;;;1.40;99.90;;;-141.84;86.22;18667.75;5075413;28;20226;-70
2023/03/11 03:06:35;;;;;;;8.93;7.60;;;1.30;99.90;;;-141.84;85.87;18677.91;5092987;28;20192;-70
2023/03/11 03:09:03;;;;;;;9.20;7.90;;;1.40;99.90;;;-141.84;85.40;18690.09;5078287;28;20696;-71
2023/03/11 03:11:31;;;;;;;8.30;7.37;;;1.30;99.90;;;-141.84;85.15;18696.19;5072613;28;20234;-70
2023/03/11 03:14:00;;;;;;;9.90;7.87;;;1.30;99.90;;;-141.84;85.41;18665.72;5072854;28;20228;-71
2023/03/11 03:16:28;;;;;;;10.10;7.80;;;1.30;99.90;;;-141.84;85.20;18657.59;5072539;28;20228;-70
2023/03/11 03:18:57;;;;;;;10.10;8.17;;;1.30;99.90;;;-141.84;85.52;18679.94;5072497;28;20201;-70
2023/03/11 03:21:25;;;;;;;11.13;8.27;;;1.30;99.90;;;-141.84;84.90;18671.81;5072435;28;20228;-69
2023/03/11 03:23:54;;;;;;;9.80;7.77;;;1.30;99.90;;;-141.84;84.73;18655.56;5072115;28;20225;-71
2023/03/11 03:26:22;;;;;;;9.20;8.20;;;1.30;99.90;;;-141.84;84.69;18710.44;5072293;28;20235;-72
2023/03/11 03:28:50;;;;;;;9.27;7.60;;;1.30;99.90;;;-141.84;84.33;18675.88;5072392;28;20236;-70
2023/03/11 03:31:18;;;;;;;9.40;7.60;;;1.30;99.90;;;-141.84;84.38;18696.19;5072259;28;20250;-69
2023/03/11 03:33:46;;;;;;;9.77;7.67;;;1.30;99.90;;;-141.84;83.91;18671.81;5072628;28;20667;-69
2023/03/11 03:36:16;;;;;;;8.60;7.17;;;1.30;99.90;;;-141.84;84.03;18684.00;5072621;28;20677;-70
2023/03/11 03:38:44;;;;;;;9.07;7.37;;;1.30;99.90;;;-141.84;84.33;18675.88;5071993;28;20237;-71
2023/03/11 03:41:15;;;;;;;8.37;6.80;;;1.30;99.90;;;-141.84;84.28;18708.41;5072369;28;20219;-70
2023/03/11 03:43:43;;;;;;;8.33;7.20;;;1.40;99.90;;;-141.84;84.03;18708.41;5071962;28;20225;-71
2023/03/11 03:46:11;;;;;;;8.80;6.87;;;1.40;99.90;;;-141.84;84.15;18673.84;5071948;28;20234;-70
2023/03/11 03:48:39;;;;;;;10.40;7.57;;;1.40;99.90;;;-141.84;83.64;18698.22;5071833;28;20664;-70
2023/03/11 03:51:11;;;;;;;9.30;7.40;;;1.40;99.90;;;-141.84;83.61;18692.13;5071144;28;20607;-70
2023/03/11 03:53:41;;;;;;;9.90;7.80;;;1.40;99.90;;;-141.84;83.41;18688.06;5071813;28;20244;-72
2023/03/11 03:56:13;;;;;;;12.40;8.53;;;1.30;99.90;;;-141.84;83.75;18688.06;5072142;28;20247;-70
2023/03/11 03:58:42;;;;;;;10.27;8.83;;;1.30;99.90;;;-141.84;84.03;18669.78;5071740;28;20738;-70
2023/03/11 04:01:12;;;;;;;11.27;9.00;;;1.30;99.90;;;-141.84;83.38;18716.53;5072204;28;20228;-70
2023/03/11 04:03:41;;;;;;;12.67;9.47;;;1.40;99.90;;;-141.84;83.22;18718.56;5072544;28;20212;-70
2023/03/11 04:06:15;;;;;;;12.77;9.70;;;1.40;99.90;;;-141.84;83.54;18696.19;5091503;28;20216;-70
2023/03/11 04:08:45;;;;;;;10.27;8.43;;;1.40;99.90;;;-141.84;83.57;18684.00;5080024;28;20421;-71
2023/03/11 04:11:14;;;;;;;13.17;9.07;;;1.40;99.90;;;-141.84;83.80;18712.47;5071615;28;20781;-69
2023/03/11 04:13:44;;;;;;;10.70;8.37;;;1.40;99.90;;;-141.84;83.47;18716.53;5071387;28;20224;-71
2023/03/11 04:16:18;;;;;;;10.70;8.67;;;1.40;99.90;;;-141.84;83.45;18696.19;5071593;28;20220;-71
2023/03/11 04:18:47;;;;;;;10.50;8.17;;;1.40;99.90;;;-141.84;83.11;18726.69;5071337;28;20279;-69
2023/03/11 04:21:15;;;;;;;10.60;8.17;;;1.40;99.90;;;-141.84;83.57;18675.88;5071763;28;20244;-71
2023/03/11 04:23:45;;;;;;;10.37;7.93;;;1.40;99.90;;;-141.84;83.47;18679.94;5071004;28;20230;-71
2023/03/11 04:26:13;;;;;;;11.43;8.17;;;1.30;99.90;;;-141.84;83.59;18706.38;5071259;28;20229;-70
2023/03/11 04:28:42;;;;;;;9.93;7.87;;;1.40;99.90;;;-141.84;82.83;18704.31;5071266;28;20594;-70
2023/03/11 04:31:11;;;;;;;11.03;8.43;;;1.40;99.90;;;-141.84;82.80;18673.84;5071385;28;20227;-71
2023/03/11 04:33:39;;;;;;;10.57;8.00;;;1.40;99.90;;;-141.84;83.22;18684.00;5071637;28;20239;-71
2023/03/11 04:36:09;;;;;;;10.37;7.50;;;1.40;99.90;;;-141.84;83.47;18675.88;5071019;28;20239;-71
2023/03/11 04:38:38;;;;;;;10.17;7.63;;;1.40;99.90;;;-141.84;82.96;18665.72;5070555;28;20232;-70
2023/03/11 04:41:08;;;;;;;10.30;7.03;;;1.40;99.90;;;-141.84;82.51;18714.50;5070800;28;20225;-71
2023/03/11 04:43:36;;;;;;;8.97;7.37;;;1.50;99.90;;;-141.84;81.75;18690.09;5070964;28;20224;-72
2023/03/11 04:46:04;;;;;;;8.20;6.57;;;1.50;99.90;;;-141.84;81.54;18696.19;5071186;28;20204;-71
2023/03/11 04:48:33;;;;;;;8.53;6.20;;;1.40;99.90;;;-141.84;81.51;18714.50;5070896;28;20728;-71
2023/03/11 04:51:01;;;;;;;8.67;6.00;;;1.40;99.90;;;-141.84;81.78;18720.59;5070834;28;20235;-70
2023/03/11 04:53:29;;;;;;;8.17;5.93;;;1.40;99.90;;;-141.84;82.36;18679.94;5070484;28;20712;-71
2023/03/11 04:55:57;;;;;;;8.73;6.23;;;1.30;99.90;;;-141.84;82.81;18692.13;5070486;28;20227;-70
2023/03/11 04:58:26;;;;;;;7.70;6.53;;;1.40;99.90;;;-141.84;82.45;18706.38;5070653;28;20220;-70
2023/03/11 05:00:55;;;;;;;9.90;7.27;;;1.30;99.90;;;-141.84;82.12;18738.88;5070290;28;20593;-71
2023/03/11 05:03:23;;;;;;;9.10;6.90;;;1.40;99.90;;;-141.84;80.64;18736.84;5070558;28;20192;-71
2023/03/11 05:05:55;;;;;;;9.90;7.20;;;1.30;99.90;;;-141.84;80.62;18712.47;5088118;28;20231;-70
2023/03/11 05:08:24;;;;;;;10.33;7.83;;;1.40;99.90;;;-141.84;80.46;18704.31;5081960;28;20266;-70
2023/03/11 05:10:53;;;;;;;11.20;8.10;;;1.30;99.90;;;-141.84;80.53;18710.44;5070055;28;20226;-70
2023/03/11 05:13:22;;;;;;;11.37;8.80;;;1.40;99.90;;;-141.84;80.39;18686.03;5070239;28;20232;-70
2023/03/11 05:15:51;;;;;;;11.07;8.63;;;1.30;99.90;;;-141.84;80.22;18684.00;5070645;28;20197;-70
2023/03/11 05:18:20;;;;;;;10.97;8.40;;;1.40;99.90;;;-141.84;79.93;18702.28;5070900;28;20200;-68
2023/03/11 05:20:48;;;;;;;11.20;8.57;;;1.40;99.90;;;-141.84;80.12;18708.41;5070161;28;20319;-71
2023/03/11 05:23:16;;;;;;;11.17;8.63;;;1.40;99.90;;;-141.84;80.16;18712.47;5070309;28;20224;-71
2023/03/11 05:25:45;;;;;;;11.63;8.73;;;1.40;99.90;;;-141.84;79.42;18724.66;5069975;28;20733;-71
2023/03/11 05:28:13;;;;;;;12.00;8.93;;;1.40;99.90;;;-141.84;79.32;18702.28;5070021;28;20228;-70
2023/03/11 05:30:41;;;;;;;11.13;8.47;;;1.40;99.90;;;-141.84;79.66;18712.47;5070870;28;20211;-70
2023/03/11 05:33:11;;;;;;;10.80;8.00;;;1.40;99.90;;;-141.84;79.53;18732.78;5069782;28;20216;-70
2023/03/11 05:35:39;;;;;;;9.90;7.77;;;1.40;99.90;;;-141.84;79.49;18738.88;5070097;28;20224;-70
2023/03/11 05:38:07;;;;;;;14.20;8.93;;;1.40;99.90;;;-141.84;79.01;18726.69;5069955;28;20229;-70
2023/03/11 05:40:35;;;;;;;10.33;7.97;;;1.50;99.90;;;-141.84;78.91;18728.72;5069798;28;20589;-70
2023/03/11 05:43:04;;;;;;;11.23;8.37;;;1.50;99.90;;;-141.84;79.53;18724.66;5069999;28;20572;-70
2023/03/11 05:45:32;;;;;;;10.90;8.20;;;1.50;99.90;;;-141.84;79.29;18759.19;5070463;28;20197;-70
2023/03/11 05:48:00;;;;;;;12.47;8.40;;;1.50;99.90;;;-141.84;78.91;18732.78;5069974;28;20219;-71
2023/03/11 05:50:30;;;;;;;13.53;8.97;;;1.50;99.90;;;-141.84;78.71;18765.28;5069982;28;20233;-71
2023/03/11 05:52:58;;;;;;;12.90;9.73;;;1.50;99.90;;;-141.84;79.10;18749.03;5069894;28;20231;-71
2023/03/11 05:55:26;;;;;;;14.50;9.33;;;1.50;99.90;;;-141.84;79.33;18716.53;5069821;28;20603;-71
2023/03/11 05:57:54;;;;;;;12.50;9.00;;;1.60;99.90;;;-141.84;78.59;18740.91;5071333;28;20212;-71
2023/03/11 06:00:23;;;;;;;11.83;8.53;;;1.60;99.90;;;-141.84;78.18;18747.00;5070609;28;20212;-70
2023/03/11 06:02:51;;;;;;;10.73;7.80;;;1.50;99.90;;;-141.84;78.67;18761.22;5070283;28;20216;-70
2023/03/11 06:05:19;;;;;;;11.73;9.03;;;1.60;99.90;;;-141.84;78.48;18744.97;5082997;28;20590;-69
2023/03/11 06:07:49;;;;;;;10.83;8.13;;;1.50;99.90;;;-141.84;78.23;18724.66;5086189;28;20251;-69
2023/03/11 06:10:18;;;;;;;9.50;7.10;;;1.60;99.90;;;-141.84;77.75;18706.38;5069587;28;20251;-71
2023/03/11 06:12:46;;;;;;;10.67;7.60;;;1.60;99.90;;;-141.84;77.03;18738.88;5070721;28;20297;-70
2023/03/11 06:15:14;;;;;;;10.50;6.87;;;1.60;99.90;;;-141.84;77.38;18761.22;5074652;28;20201;-70
2023/03/11 06:17:42;;;;;;;10.10;6.77;;;1.60;99.90;;;-141.84;76.58;18779.50;5073893;28;20602;-68
2023/03/11 06:20:12;;;;;;;8.77;6.37;;;1.60;99.90;;;-141.84;76.71;18753.09;5074045;28;20244;-71
2023/03/11 06:22:40;;;;;;;8.73;6.53;;;1.60;99.90;;;-141.84;76.11;18740.91;5074853;28;20587;-70
2023/03/11 06:25:11;;;;;;;8.27;6.17;;;1.60;99.90;;;-141.84;76.84;18753.09;5074945;28;20224;-70
2023/03/11 06:27:39;;;;;;;8.83;6.57;;;1.60;99.90;;;-141.84;76.74;18765.28;5075036;28;20188;-70
2023/03/11 06:30:10;;;;;;;9.33;6.17;;;1.60;99.90;;;-141.84;76.90;18714.50;5073536;28;20229;-71
2023/03/11 06:32:38;;;;;;;7.13;5.97;;;1.60;99.90;;;-141.84;76.49;18763.25;5073356;28;20235;-72
2023/03/11 06:35:07;;;;;;;8.13;6.10;;;1.60;99.90;;;-141.84;76.72;18777.47;5073495;28;20298;-72
2023/03/11 06:37:36;;;;;;;8.67;6.20;;;1.60;99.90;;;-141.84;77.02;18734.81;5073385;28;20228;-71
2023/03/11 06:40:08;;;;;;;7.83;5.80;;;1.60;99.90;;;-141.84;76.91;18779.50;5073537;28;20679;-73
2023/03/11 06:42:37;;;;;;;8.53;6.37;;;1.60;99.90;;;-141.84;75.41;18757.16;5074429;28;20181;-72
2023/03/11 06:45:07;;;;;;;9.33;6.63;;;1.70;99.90;;;-141.84;75.24;18767.31;5073969;28;20696;-71
2023/03/11 06:47:35;;;;;;;8.67;6.60;;;1.70;99.90;;;-141.84;76.04;18779.50;5073305;28;20235;-72
2023/03/11 06:50:06;;;;;;;8.47;6.63;;;1.80;99.90;;;-141.84;76.08;18761.22;5065200;28;20599;-72
2023/03/11 06:52:34;;;;;;;9.00;6.50;;;1.80;99.90;;;-141.84;75.74;18791.69;5073396;28;20216;-72
2023/03/11 06:55:03;;;;;;;9.10;6.27;;;1.80;99.90;;;-141.84;75.22;18805.91;5073815;28;20200;-74
2023/03/11 06:57:31;;;;;;;9.93;7.13;;;1.90;99.90;;;-141.84;75.52;18797.78;5074514;28;20673;-73
2023/03/11 07:00:00;;;;;;;9.27;6.37;;;1.80;99.90;;;-141.84;75.99;18771.38;5074236;28;20236;-73
2023/03/11 07:02:29;;;;;;;7.30;5.77;;;1.80;99.90;;;-141.84;75.66;18777.47;5074107;28;20386;-74
2023/03/11 07:04:57;;;;;;;7.07;5.43;;;1.80;99.90;;;-141.84;75.09;18797.78;5076667;28;20603;-72
2023/03/11 07:07:25;;;;;;;6.73;5.30;;;1.90;99.90;;;-141.84;74.65;18793.72;5092440;28;20219;-75
2023/03/11 07:09:56;;;;;;;6.47;5.33;;;1.90;99.90;;;-141.84;75.63;18791.69;5072108;28;20204;-74
2023/03/11 07:12:25;;;;;;;6.33;5.00;;;1.90;99.90;;;-141.84;75.31;18801.84;5073675;28;20272;-73
2023/03/11 07:14:55;;;;;;;6.40;4.80;;;1.90;99.90;;;-141.84;75.41;18785.59;5072796;28;20719;-74
2023/03/11 07:17:26;;;;;;;7.33;5.33;;;1.90;99.90;;;-141.84;75.75;18795.75;5072875;28;20243;-73
2023/03/11 07:19:55;;;;;;;5.90;4.87;;;2.00;99.90;;;-141.84;74.40;18775.44;5072720;28;20235;-74
2023/03/11 07:22:23;;;;;;;6.00;4.70;;;2.00;99.90;;;-141.84;73.49;18807.94;5072865;28;20232;-75
2023/03/11 07:24:52;;;;;;;6.13;4.97;;;2.10;99.90;;;-141.84;73.80;18805.91;5071953;28;20601;-74
2023/03/11 07:27:21;;;;;;;5.80;5.10;;;2.00;99.90;;;-141.84;72.91;18842.50;5072817;28;20206;-73
2023/03/11 07:29:50;;;;;;;6.43;4.97;;;2.10;99.90;;;-141.84;73.36;18793.72;5072430;28;20247;-75
2023/03/11 07:32:18;;;;;;;7.90;5.37;;;2.10;99.90;;;-141.84;72.50;18816.06;5072453;28;20223;-74
2023/03/11 07:34:47;;;;;;;7.50;5.03;;;2.10;99.90;;;-141.84;72.76;18842.50;5072306;28;20590;-74
2023/03/11 07:37:16;;;;;;;7.23;5.30;;;2.10;99.90;;;-141.84;72.26;18822.19;5072076;28;20220;-74
2023/03/11 07:39:44;;;;;;;6.13;5.20;;;2.10;99.90;;;-141.84;72.31;18814.03;5072739;28;20286;-75
2023/03/11 07:42:13;;;;;;;7.27;5.60;;;2.20;99.90;;;-141.84;72.78;18830.31;5071693;28;20239;-74
2023/03/11 07:44:41;;;;;;;6.77;5.40;;;2.10;99.90;;;-141.84;73.45;18830.31;5072076;28;20232;-75
2023/03/11 07:47:09;;;;;;;7.43;5.80;;;2.10;99.90;;;-141.84;73.74;18822.19;5071752;28;20604;-75
2023/03/11 07:49:37;;;;;;;7.07;5.40;;;2.30;99.90;;;-141.84;74.44;18785.59;5072165;28;20289;-75
2023/03/11 07:52:07;;;;;;;7.60;5.03;;;2.30;99.90;;;-141.84;72.69;18846.56;5072005;28;20202;-75
2023/03/11 07:54:35;;;;;;;6.17;5.23;;;2.40;99.90;;;-141.84;72.31;18846.56;5072744;28;20209;-74
2023/03/11 07:57:04;;;;;;;6.47;5.40;;;2.40;99.90;;;-141.84;72.27;18834.38;5072279;28;20712;-75
2023/03/11 07:59:32;;;;;;;7.17;5.47;;;2.40;99.90;;;-141.84;72.83;18830.31;5072408;28;20232;-74
2023/03/11 08:02:01;;;;;;;6.77;5.40;;;2.40;99.90;;;-141.84;72.65;18856.72;5072226;28;20229;-74
2023/03/11 08:04:30;;;;;;;7.03;5.63;;;2.50;99.90;;;-141.84;71.95;18872.97;5072289;28;20665;-76
2023/03/11 08:06:59;;;;;;;7.53;5.87;;;2.50;99.90;;;-141.84;72.15;18816.06;5072410;28;20208;-75
2023/03/11 08:09:28;;;;;;;6.53;5.73;;;2.60;99.90;;;-141.84;71.46;18868.91;5073071;28;20585;-75
2023/03/11 08:11:56;;;;;;;6.47;5.53;;;2.60;99.90;;;-141.84;70.78;18866.88;5071374;28;20229;-73
2023/03/11 08:14:24;;;;;;;6.87;5.70;;;2.80;99.90;;;-141.84;70.88;18883.13;5071692;28;20234;-77
2023/03/11 08:16:52;;;;;;;9.07;6.30;;;2.80;99.90;;;-141.84;69.96;18864.84;5071789;28;20706;-74
2023/03/11 08:19:21;;;;;;;7.53;5.87;;;2.90;99.90;;;-141.84;69.94;18868.91;5071491;28;20720;-75
2023/03/11 08:21:49;;;;;;;7.57;6.20;;;2.90;99.90;;;-141.84;70.21;18858.75;5071457;28;20221;-73
2023/03/11 08:24:17;;;;;;;8.67;6.23;;;2.80;99.90;;;-141.84;70.81;18875.00;5073161;28;20199;-77
2023/03/11 08:26:46;;;;;;;8.67;5.73;;;2.80;99.90;;;-141.84;70.06;18885.16;5066532;28;20229;-75
2023/03/11 08:29:15;;;;;;;7.07;5.67;;;2.80;99.90;;;-141.84;70.75;18846.56;5072659;28;20236;-75
2023/03/11 08:31:43;;;;;;;9.07;6.20;;;2.70;99.90;;;-141.84;71.72;18854.69;5071618;28;20332;-75
2023/03/11 08:34:12;;;;;;;8.10;5.87;;;2.50;99.90;;;-141.84;71.32;18897.34;5072232;28;20241;-75
2023/03/11 08:36:40;;;;;;;6.93;5.27;;;2.60;99.90;;;-141.84;70.66;18875.00;5071136;28;20206;-76
2023/03/11 08:39:09;;;;;;;5.10;4.60;;;2.60;99.90;;;-141.84;70.15;18877.03;5071400;28;20689;-74
2023/03/11 08:41:37;;;;;;;5.03;4.53;;;2.50;99.90;;;-141.84;69.41;18885.16;5070703;28;20639;-75
2023/03/11 08:44:07;;;;;;;5.53;4.73;;;2.50;99.90;;;-141.84;70.58;18864.84;5070900;28;20229;-75
2023/03/11 08:46:38;;;;;;;5.80;3.93;;;2.50;99.90;;;-141.84;70.25;18866.88;5070957;28;20584;-76
2023/03/11 08:49:07;;;;;;;6.87;3.87;;;2.50;99.90;;;-141.84;69.76;18879.06;5070578;28;20313;-73
2023/03/11 08:51:36;;;;;;;5.07;3.90;;;2.50;99.90;;;-141.84;69.71;18885.16;5071290;28;20213;-74
2023/03/11 08:54:05;;;;;;;5.00;4.13;;;2.50;99.90;;;-141.84;69.97;18885.16;5069867;28;20240;-74
2023/03/11 08:56:33;;;;;;;5.67;4.03;;;2.60;99.90;;;-141.84;68.83;18899.38;5070777;28;20236;-74
2023/03/11 08:59:02;;;;;;;7.43;4.13;;;2.60;99.90;;;-141.84;69.04;18903.44;5070723;28;20228;-74
2023/03/11 09:01:31;;;;;;;4.80;3.70;;;2.70;99.90;;;-141.84;68.69;18919.69;5070307;28;20229;-74
2023/03/11 09:03:59;;;;;;;4.47;4.07;;;2.80;99.90;;;-141.84;67.95;18901.41;5070523;28;20205;-76
2023/03/11 09:06:29;;;;;;;4.70;3.83;;;2.70;99.90;;;-141.84;68.34;18907.50;5071401;28;20203;-76
2023/03/11 09:08:57;;;;;;;5.30;4.07;;;2.80;99.90;;;-141.84;68.42;18883.13;5070600;28;20256;-76
2023/03/11 09:11:26;;;;;;;4.77;4.27;;;2.80;99.90;;;-141.84;68.62;18903.44;5070441;28;20236;-74
2023/03/11 09:13:54;;;;;;;7.13;5.03;;;2.80;99.90;;;-141.84;67.26;18917.66;5070367;28;20232;-74
2023/03/11 09:16:23;;;;;;;5.30;4.57;;;3.00;99.90;;;-141.84;66.00;18923.78;5068300;28;20227;-74
2023/03/11 09:18:53;;;;;;;5.60;4.60;;;3.00;99.90;;;-141.84;66.18;18923.78;5076331;28;20204;-74
2023/03/11 09:21:21;;;;;;;5.30;4.70;;;3.10;99.90;;;-141.84;65.86;18960.34;5089829;28;20235;-74
2023/03/11 09:23:50;;;;;;;5.43;4.47;;;3.20;99.90;;;-141.84;66.34;18968.47;5074259;28;20221;-75
2023/03/11 09:26:18;;;;;;;6.17;5.00;;;3.30;99.90;;;-141.84;64.97;18946.13;5069962;28;20318;-74
2023/03/11 09:28:47;;;;;;;6.53;4.33;;;3.30;99.90;;;-141.84;65.16;18925.81;5070260;28;20238;-75
2023/03/11 09:31:17;;;;;;;5.23;4.70;;;3.30;99.90;;;-141.84;66.05;18974.56;5069995;28;20228;-76
2023/03/11 09:33:47;;;;;;;5.80;4.13;;;3.40;99.90;;;-141.84;64.80;19021.31;5070566;28;20207;-76
2023/03/11 09:36:20;;;;;;;4.57;4.17;;;3.50;99.90;;;-141.84;63.46;19015.19;5071551;28;20232;-74
2023/03/11 09:38:49;;;;;;;6.73;4.37;;;3.50;99.90;;;-141.84;63.24;18968.47;5069612;28;20227;-75
2023/03/11 09:41:36;;;;;;;7.17;4.37;;;3.50;99.90;;;-141.84;62.98;18988.78;5077938;28;20223;-76
2023/03/11 09:44:36;;;;;;;5.67;4.27;;;3.60;99.90;;;-141.84;63.39;18990.81;5067142;28;20222;-76
2023/03/11 09:47:31;;;;;;;7.53;4.70;;;3.70;99.90;;;-141.84;64.48;18990.81;5071107;28;20378;-74
2023/03/11 09:50:24;;;;;;;7.43;5.60;;;3.70;99.90;;;-141.84;64.85;18984.72;5071179;28;20788;-77
2023/03/11 09:53:13;;;;;;;6.40;5.40;;;3.70;99.90;;;-141.84;63.88;19015.19;5053515;28;20731;-74
2023/03/11 09:55:46;;;;;;;5.57;4.37;;;3.80;99.90;;;-141.84;63.54;19023.34;5069725;28;20228;-74
2023/03/11 09:58:22;;;;;;;7.30;4.87;;;3.70;99.90;;;-141.84;64.74;19017.25;5072709;28;20223;-74
2023/03/11 10:00:52;;;;;;;5.37;4.73;;;3.80;99.90;;;-141.84;64.13;18980.66;5073735;28;20191;-76
2023/03/11 10:03:32;;;;;;;6.27;4.63;;;3.90;99.90;;;-141.84;62.71;19013.16;5073363;28;20204;-75
2023/03/11 10:06:15;;;;;;;7.07;4.60;;;3.80;99.90;;;-141.84;61.90;19041.63;5072597;28;20223;-74
2023/03/11 10:08:52;;;;;;;5.50;4.30;;;3.80;99.90;;;-141.84;61.76;19033.50;5064646;28;20962;-75
2023/03/11 10:11:48;;;;;;;5.20;4.70;;;3.90;99.90;;;-141.84;61.96;19053.81;5065045;28;20231;-74
2023/03/11 10:14:39;;;;;;;5.70;4.43;;;4.00;99.90;;;-141.84;62.07;19055.84;5069911;28;20238;-75
2023/03/11 10:17:27;;;;;;;5.33;4.00;;;4.00;99.90;;;-141.84;61.67;19029.44;5072417;28;20228;-74
2023/03/11 10:20:07;;;;;;;5.40;4.20;;;4.00;99.90;;;-141.84;61.98;18990.81;5072229;28;20589;-74
2023/03/11 10:22:50;;;;;;;6.03;4.40;;;4.00;99.90;;;-141.84;61.75;19055.84;5052954;28;20220;-74